Time,TemperatureF,DewpointF,PressureIn,WindDirection,WindDirectionDegrees,WindSpeedMPH,WindSpeedGustMPH,Humidity,HourlyPrecipIn,Conditions,Clouds,dailyrainin,SoftwareType,DateUTC
2013-12-15 11:52:00,28.0,24.0,-100.00,NNE,25,5.0,6.0,84,0.00,,,0.00,,2013-12-15 18:52:00,
2013-12-15 12:02:00,28.0,24.0,-100.00,NNE,25,5.0,6.0,84,0.00,,,0.00,,2013-12-15 19:02:00,
2013-12-15 12:21:00,29.0,24.0,-100.00,NNE,21,4.0,5.0,81,0.00,,,0.00,,2013-12-15 19:21:00,
2013-12-15 12:32:00,29.0,24.0,-100.00,NNE,21,4.0,5.0,81,0.00,,,0.00,,2013-12-15 19:32:00,
2013-12-15 12:52:00,31.0,25.0,-100.00,NNE,27,5.0,6.0,77,0.00,,,0.00,,2013-12-15 19:52:00,
2013-12-15 13:01:00,31.0,25.0,-100.00,NNE,27,5.0,6.0,77,0.00,,,0.00,,2013-12-15 20:01:00,
2013-12-15 13:22:00,29.0,25.0,-100.00,NNE,14,9.0,10.0,82,0.00,,,0.00,,2013-12-15 20:22:00,
2013-12-15 13:32:00,29.0,25.0,-100.00,NNE,14,9.0,10.0,82,0.00,,,0.00,,2013-12-15 20:32:00,
2013-12-15 13:52:00,31.0,25.0,-100.00,NNE,17,6.0,8.0,77,0.00,,,0.00,,2013-12-15 20:52:00,
2013-12-15 14:02:00,31.0,25.0,-100.00,NNE,17,6.0,8.0,77,0.00,,,0.00,,2013-12-15 21:02:00,
2013-12-15 14:21:00,33.0,25.0,-100.00,NNE,16,4.0,6.0,73,0.00,,,0.00,,2013-12-15 21:21:00,
2013-12-15 14:33:00,33.0,25.0,-100.00,NNE,16,4.0,6.0,73,0.00,,,0.00,,2013-12-15 21:33:00,
2013-12-15 14:54:00,32.0,25.0,-100.00,North,11,5.0,7.0,75,0.00,,,0.00,,2013-12-15 21:54:00,
2013-12-15 15:03:00,32.0,25.0,-100.00,North,11,5.0,7.0,75,0.00,,,0.00,,2013-12-15 22:03:00,
2013-12-15 15:23:00,33.0,26.0,-100.00,North,8,3.0,5.0,76,0.00,,,0.00,,2013-12-15 22:23:00,
2013-12-15 15:33:00,33.0,26.0,-100.00,North,8,3.0,5.0,76,0.00,,,0.00,,2013-12-15 22:33:00,
2013-12-15 15:52:00,31.0,26.0,-100.00,NNE,18,8.0,9.0,81,0.00,,,0.00,,2013-12-15 22:52:00,
2013-12-15 16:02:00,31.0,26.0,-100.00,NNE,18,8.0,9.0,81,0.00,,,0.00,,2013-12-15 23:02:00,
2013-12-15 16:21:00,31.0,26.0,-100.00,NNE,23,7.0,8.0,81,0.00,,,0.00,,2013-12-15 23:21:00,
2013-12-15 16:33:00,31.0,26.0,-100.00,NNE,23,7.0,8.0,81,0.00,,,0.00,,2013-12-15 23:33:00,
2013-12-15 16:52:00,31.0,27.0,-100.00,North,0,4.0,5.0,83,0.00,,,0.00,,2013-12-15 23:52:00,
2013-12-15 17:02:00,31.0,27.0,-100.00,North,0,4.0,5.0,83,0.00,,,0.00,,2013-12-16 00:02:00,
2013-12-15 17:22:00,31.0,26.0,-100.00,SW,232,1.0,2.0,82,0.00,,,0.00,,2013-12-16 00:22:00,
2013-12-15 17:32:00,31.0,26.0,-100.00,SW,232,1.0,2.0,82,0.00,,,0.00,,2013-12-16 00:32:00,
2013-12-15 17:52:00,30.0,26.0,-100.00,SSW,196,2.0,3.0,85,0.00,,,0.00,,2013-12-16 00:52:00,
2013-12-15 18:02:00,30.0,26.0,-100.00,SSW,196,2.0,3.0,85,0.00,,,0.00,,2013-12-16 01:02:00,
2013-12-15 18:21:00,31.0,27.0,-100.00,South,191,3.0,4.0,83,0.00,,,0.00,,2013-12-16 01:21:00,
2013-12-15 18:32:00,31.0,27.0,-100.00,South,191,3.0,4.0,83,0.00,,,0.00,,2013-12-16 01:32:00,
2013-12-15 21:13:00,27.0,24.0,-100.00,NE,48,3.0,4.0,89,0.00,,,0.00,,2013-12-16 04:13:00,
2013-12-15 21:43:00,24.0,22.0,-100.00,SE,128,3.0,4.0,94,0.00,,,0.00,,2013-12-16 04:43:00,
2013-12-15 22:43:00,25.0,22.0,-100.00,East,93,2.0,2.0,90,0.00,,,0.00,,2013-12-16 05:43:00,